Rio Rancho, NM (87124)

10:51 AM MDT on August 27, 2016 (GMT -0600)
Western Hills | | Change Station

Elev 5486 ft 35.26 °N, 106.69 °W | Updated 0 second ago

Scattered Clouds
Scattered Clouds
75.4 °F
Feels Like 78 °F
N
5.4
Wind Variable Wind from SW
Gusts 6.9 mph

Today
High -- | Low -- °F
--% Chance of Precip.
Yesterday
High -- | Low -- °F
Precip. -- in
Pressure 30.25 in
Visibility 10.0 miles
Clouds Scattered Clouds 10000 ft
Heat Index 78 °F
Dew Point 53 °F
Humidity 46%
Rainfall 0.00 in
Snow Depth Not available.
6:35 AM 7:39 PM
Waning Crescent, 23% visible
METAR KAEG 271549Z VRB05KT 10SM SCT100 20/11 A3025
Pressure 30.25 in
Visibility 10.0 miles
Clouds Scattered Clouds 10000 ft
Heat Index 78 °F
Dew Point 53 °F
Humidity 46%
Rainfall 0.00 in
Snow Depth Not available.
6:35 AM 7:39 PM
Waning Crescent, 23% visible
METAR KAEG 271549Z VRB05KT 10SM SCT100 20/11 A3025

10-Day Weather Forecast

Almanac

Astronomy

Aug. 27, 2016 Rise Set
Actual Time
Civil Twilight
Nautical Twilight
Astronomical Twilight
Moon
Length of Visible Light
Length of Day
Tomorrow will be .
, % of the Moon is Illuminated

Today's Extremes

State Highs State Lows

Community

WunderPhotos

Upload Photos

1,935,377 photos uploaded!

WunderBlog® & News

Nearby

Air Quality

  Air Quality AQ Index Pollutant
Not available.

Snow Depth

Station Depth Elevation

Earthquake Activity

City Distance Mag. Time & Date
Minimum magnitude displayed is 2.5.

Coastal Water Temperatures

Place Temperature

Stations

Nearby Weather Stations

Station Location Temp. Windchill Dew Point Humidity Wind Precip. Elev Updated Type
                   

Watches & Warnings

There are currently no watches in effect.